createdAt,value
2016-11-21T00:00:35.312Z,22.25
2016-11-21T00:01:35.345Z,22.25
2016-11-21T00:02:35.370Z,22.27
2016-11-21T00:03:35.090Z,22.35
2016-11-21T00:04:34.823Z,22.4
2016-11-21T00:05:35.445Z,22.24
2016-11-21T00:06:34.868Z,22.31
2016-11-21T00:07:35.504Z,22.27
2016-11-21T00:08:35.541Z,22.27
2016-11-21T00:09:35.265Z,22.28
2016-11-21T00:10:35.585Z,22.35
2016-11-21T00:11:35.314Z,22.27
2016-11-21T00:12:35.347Z,22.27
2016-11-21T00:13:35.685Z,22.27
2016-11-21T00:14:35.397Z,22.27
2016-11-21T00:15:35.429Z,22.27
2016-11-21T00:16:35.758Z,22.27
2016-11-21T00:17:35.488Z,22.28
2016-11-21T00:18:35.820Z,22.27
2016-11-21T00:19:35.234Z,22.27
2016-11-21T00:20:35.877Z,22.22
2016-11-21T00:21:35.610Z,22.28
2016-11-21T00:22:35.635Z,22.3
2016-11-21T00:23:35.968Z,22.27
2016-11-21T00:24:35.692Z,22.33
2016-11-21T00:25:35.728Z,22.27
2016-11-21T00:26:36.049Z,22.33
2016-11-21T00:27:35.774Z,22.28
2016-11-21T00:28:36.103Z,22.24
2016-11-21T00:29:36.131Z,22.25
2016-11-21T00:30:35.860Z,22.28
2016-11-21T00:31:35.884Z,22.27
2016-11-21T00:32:36.209Z,22.24
2016-11-21T00:33:36.238Z,22.33
2016-11-21T00:34:36.275Z,22.3
2016-11-21T00:35:36.000Z,22.27
2016-11-21T00:36:36.332Z,22.31
2016-11-21T00:37:36.361Z,22.28
2016-11-21T00:38:36.390Z,22.3
2016-11-21T00:39:36.419Z,22.22
2016-11-21T00:40:35.831Z,22.21
2016-11-21T00:41:36.168Z,22.25
2016-11-21T00:42:36.497Z,22.21
2016-11-21T00:43:36.525Z,22.21
2016-11-21T00:44:36.559Z,22.27
2016-11-21T00:45:36.583Z,22.24
2016-11-21T00:46:36.311Z,22.18
2016-11-21T00:47:36.631Z,22.2
2016-11-21T00:48:36.705Z,22.27
2016-11-21T00:49:36.689Z,22.2
2016-11-21T00:50:36.714Z,22.25
2016-11-21T00:51:36.747Z,22.24
2016-11-21T00:52:36.512Z,22.31
2016-11-21T00:53:36.812Z,22.21
2016-11-21T00:54:36.841Z,22.27
2016-11-21T00:55:36.563Z,22.25
2016-11-21T00:56:36.891Z,22.18
2016-11-21T00:57:36.619Z,22.21
2016-11-21T00:58:36.653Z,22.22
2016-11-21T00:59:36.974Z,22.22
2016-11-21T01:00:36.710Z,22.24
2016-11-21T01:01:37.039Z,22.15
2016-11-21T01:02:37.056Z,22.2
2016-11-21T01:03:37.092Z,22.2
2016-11-21T01:04:37.121Z,22.15
2016-11-21T01:05:37.162Z,22.15
2016-11-21T01:06:36.870Z,22.2
2016-11-21T01:07:37.207Z,22.15
2016-11-21T01:08:37.231Z,22.18
2016-11-21T01:09:36.949Z,22.15
2016-11-21T01:10:36.681Z,22.2
2016-11-21T01:11:37.322Z,22.12
2016-11-21T01:12:37.347Z,22.12
2016-11-21T01:13:36.791Z,22.18
2016-11-21T01:14:37.397Z,22.17
2016-11-21T01:15:37.421Z,22.14
2016-11-21T01:16:37.474Z,22.18
2016-11-21T01:17:36.874Z,22.17
2016-11-21T01:18:37.203Z,22.17
2016-11-21T01:19:37.237Z,22.2
2016-11-21T01:20:37.572Z,22.15
2016-11-21T01:21:37.297Z,22.17
2016-11-21T01:22:37.615Z,22.17
2016-11-21T01:23:37.651Z,22.18
2016-11-21T01:24:37.676Z,22.15
2016-11-21T01:25:37.721Z,22.15
2016-11-21T01:26:37.747Z,22.12
2016-11-21T01:27:37.774Z,22.17
2016-11-21T01:28:37.491Z,22.12
2016-11-21T01:29:37.523Z,22.15
2016-11-21T01:30:37.555Z,22.18
2016-11-21T01:31:37.269Z,22.24
2016-11-21T01:32:37.306Z,22.17
2016-11-21T01:33:37.631Z,22.17
2016-11-21T01:34:37.962Z,22.14
2016-11-21T01:35:37.996Z,22.14
2016-11-21T01:36:37.720Z,22.17
2016-11-21T01:37:37.471Z,22.17
2016-11-21T01:38:38.094Z,22.14
2016-11-21T01:39:37.804Z,22.2
2016-11-21T01:40:38.132Z,22.15
2016-11-21T01:41:38.161Z,22.12
2016-11-21T01:42:37.893Z,22.14
2016-11-21T01:43:38.250Z,22.12
2016-11-21T01:44:37.943Z,22.12
2016-11-21T01:45:38.272Z,22.09
2016-11-21T01:46:38.304Z,22.1
2016-11-21T01:47:38.331Z,22.09
2016-11-21T01:48:38.362Z,22.12
2016-11-21T01:49:38.090Z,22.12
2016-11-21T01:50:38.427Z,22.07
2016-11-21T01:51:38.133Z,22.15
2016-11-21T01:52:38.173Z,22.18
2016-11-21T01:53:37.886Z,22.07
2016-11-21T01:54:38.530Z,22.1
2016-11-21T01:55:38.563Z,22.06
2016-11-21T01:56:38.289Z,22.15
2016-11-21T01:57:38.616Z,22.1
2016-11-21T01:58:38.341Z,22.14
2016-11-21T01:59:38.666Z,22.06
2016-11-21T02:00:38.387Z,22.14
2016-11-21T02:01:38.727Z,22.1
2016-11-21T02:02:38.760Z,22.14
2016-11-21T02:03:38.482Z,22.09
2016-11-21T02:04:38.502Z,22.14
2016-11-21T02:05:38.847Z,22.1
2016-11-21T02:06:38.868Z,22.12
2016-11-21T02:07:38.292Z,22.12
2016-11-21T02:08:38.621Z,22.06
2016-11-21T02:09:38.661Z,22.07
2016-11-21T02:10:38.686Z,22.14
2016-11-21T02:11:38.998Z,22.14
2016-11-21T02:12:38.732Z,22.12
2016-11-21T02:13:39.064Z,22.12
2016-11-21T02:14:39.098Z,22.12
2016-11-21T02:15:38.830Z,22.05
2016-11-21T02:16:38.843Z,22.14
2016-11-21T02:17:38.867Z,22.09
2016-11-21T02:18:39.200Z,22.09
2016-11-21T02:19:39.237Z,22.06
2016-11-21T02:20:39.264Z,22.07
2016-11-21T02:21:39.288Z,22.07
2016-11-21T02:22:39.323Z,22.1
2016-11-21T02:23:39.348Z,22.07
2016-11-21T02:24:39.061Z,22.05
2016-11-21T02:25:39.441Z,22.12
2016-11-21T02:26:39.430Z,22.06
2016-11-21T02:27:39.460Z,22.06
2016-11-21T02:28:38.887Z,22.07
2016-11-21T02:29:39.517Z,22
2016-11-21T02:30:39.553Z,22.12
2016-11-21T02:31:39.570Z,22.09
2016-11-21T02:32:39.302Z,22.06
2016-11-21T02:33:39.319Z,22.07
2016-11-21T02:34:39.356Z,22.09
2016-11-21T02:35:39.377Z,22
2016-11-21T02:36:39.409Z,22.03
2016-11-21T02:37:39.132Z,21.98
2016-11-21T02:38:39.463Z,22.05
2016-11-21T02:39:39.496Z,22.05
2016-11-21T02:40:39.528Z,22.02
2016-11-21T02:41:39.545Z,22.09
2016-11-21T02:42:39.574Z,22.07
2016-11-21T02:43:39.601Z,22.07
2016-11-21T02:44:39.332Z,22.06
2016-11-21T02:45:39.672Z,22.06
2016-11-21T02:46:39.685Z,22.06
2016-11-21T02:47:40.019Z,22.05
2016-11-21T02:48:39.746Z,22.05
2016-11-21T02:49:39.776Z,22.1
2016-11-21T02:50:40.108Z,22.09
2016-11-21T02:51:39.525Z,22.03
2016-11-21T02:52:39.865Z,22
2016-11-21T02:53:40.193Z,22.02
2016-11-21T02:54:40.219Z,22.06
2016-11-21T02:55:39.939Z,22.07
2016-11-21T02:56:40.264Z,22.03
2016-11-21T02:57:40.309Z,22.06
2016-11-21T02:58:40.333Z,22.03
2016-11-21T02:59:40.366Z,22.06
2016-11-21T03:00:39.778Z,22.05
2016-11-21T03:01:40.408Z,22
2016-11-21T03:02:40.436Z,22.05
2016-11-21T03:03:40.476Z,22.05
2016-11-21T03:04:40.502Z,22.1
2016-11-21T03:05:40.519Z,22.06
2016-11-21T03:06:40.563Z,22.05
2016-11-21T03:07:40.596Z,22
2016-11-21T03:08:40.313Z,22.07
2016-11-21T03:09:40.645Z,22.03
2016-11-21T03:10:40.670Z,22.05
2016-11-21T03:11:40.707Z,22.02
2016-11-21T03:12:40.727Z,22.05
2016-11-21T03:13:40.463Z,22
2016-11-21T03:14:40.780Z,21.99
2016-11-21T03:15:40.502Z,22.06
2016-11-21T03:16:40.840Z,22.1
2016-11-21T03:17:40.862Z,22
2016-11-21T03:18:40.592Z,22.05
2016-11-21T03:19:40.910Z,22.14
2016-11-21T03:20:40.953Z,22
2016-11-21T03:21:40.681Z,22
2016-11-21T03:22:40.998Z,22.05
2016-11-21T03:23:40.735Z,22.1
2016-11-21T03:24:40.755Z,22.09
2016-11-21T03:25:41.105Z,22.09
2016-11-21T03:26:40.509Z,22.05
2016-11-21T03:27:41.142Z,22.03
2016-11-21T03:28:40.878Z,22.05
2016-11-21T03:29:40.887Z,22.05
2016-11-21T03:30:40.924Z,22.09
2016-11-21T03:31:40.955Z,22.06
2016-11-21T03:32:41.289Z,22.14
2016-11-21T03:33:41.010Z,22.02
2016-11-21T03:34:41.039Z,22.02
2016-11-21T03:35:41.374Z,22.09
2016-11-21T03:36:41.093Z,22.09
2016-11-21T03:37:41.128Z,22.06
2016-11-21T03:38:41.158Z,22.1
2016-11-21T03:39:41.487Z,22.05
2016-11-21T03:40:41.217Z,22.06
2016-11-21T03:41:41.540Z,22
2016-11-21T03:42:41.568Z,22.07
2016-11-21T03:43:41.597Z,22.05
2016-11-21T03:44:41.021Z,22.06
2016-11-21T03:45:41.335Z,22
2016-11-21T03:46:41.672Z,22.07
2016-11-21T03:47:41.712Z,22.03
2016-11-21T03:48:41.433Z,22.02
2016-11-21T03:49:41.766Z,22.05
2016-11-21T03:50:41.790Z,21.99
2016-11-21T03:51:41.819Z,22.03
2016-11-21T03:52:41.844Z,22.03
2016-11-21T03:53:41.564Z,22.06
2016-11-21T03:54:41.905Z,22.03
2016-11-21T03:55:41.926Z,22.02
2016-11-21T03:56:41.955Z,22.02
2016-11-21T03:57:42.000Z,21.9
2016-11-21T03:58:42.020Z,22.05
2016-11-21T03:59:42.045Z,22.02
2016-11-21T04:00:42.074Z,22.02
2016-11-21T04:01:41.794Z,22.03
2016-11-21T04:02:42.135Z,21.91
2016-11-21T04:03:42.160Z,22.02
2016-11-21T04:04:41.881Z,22.02
2016-11-21T04:05:41.909Z,21.86
2016-11-21T04:06:42.246Z,22
2016-11-21T04:07:42.266Z,21.9
2016-11-21T04:08:42.325Z,21.9
2016-11-21T04:09:42.012Z,21.92
2016-11-21T04:10:42.349Z,21.94
2016-11-21T04:11:42.374Z,21.92
2016-11-21T04:12:42.095Z,21.92
2016-11-21T04:13:41.830Z,21.88
2016-11-21T04:14:42.163Z,21.86
2016-11-21T04:15:42.488Z,21.91
2016-11-21T04:16:42.520Z,21.92
2016-11-21T04:17:42.553Z,21.88
2016-11-21T04:18:42.274Z,21.92
2016-11-21T04:19:42.295Z,21.92
2016-11-21T04:20:42.047Z,21.94
2016-11-21T04:21:42.365Z,21.96
2016-11-21T04:22:42.393Z,21.92
2016-11-21T04:23:42.714Z,21.92
2016-11-21T04:24:42.438Z,21.91
2016-11-21T04:25:42.171Z,21.9
2016-11-21T04:26:42.500Z,21.92
2016-11-21T04:27:42.833Z,21.96
2016-11-21T04:28:42.861Z,21.91
2016-11-21T04:29:42.870Z,21.91
2016-11-21T04:30:42.614Z,21.98
2016-11-21T04:31:42.939Z,21.91
2016-11-21T04:32:42.656Z,21.96
2016-11-21T04:33:43.004Z,21.96
2016-11-21T04:34:42.745Z,21.92
2016-11-21T04:35:42.743Z,21.92
2016-11-21T04:36:43.087Z,21.94
2016-11-21T04:37:42.799Z,21.96
2016-11-21T04:38:42.860Z,21.98
2016-11-21T04:39:43.165Z,21.83
2016-11-21T04:40:43.190Z,21.94
2016-11-21T04:41:43.223Z,21.82
2016-11-21T04:42:43.235Z,21.91
2016-11-21T04:43:43.275Z,21.83
2016-11-21T04:44:42.996Z,21.84
2016-11-21T04:45:43.021Z,21.98
2016-11-21T04:46:43.366Z,21.82
2016-11-21T04:47:42.771Z,21.84
2016-11-21T04:48:43.416Z,21.79
2016-11-21T04:49:43.456Z,21.94
2016-11-21T04:50:43.180Z,21.9
2016-11-21T04:51:43.493Z,21.79
2016-11-21T04:52:43.238Z,21.84
2016-11-21T04:53:43.247Z,21.83
2016-11-21T04:54:43.580Z,21.91
2016-11-21T04:55:43.604Z,21.84
2016-11-21T04:56:43.334Z,21.79
2016-11-21T04:57:43.663Z,21.86
2016-11-21T04:58:43.682Z,21.88
2016-11-21T04:59:43.403Z,21.9
2016-11-21T05:00:43.752Z,21.77
2016-11-21T05:01:43.509Z,21.75
2016-11-21T05:02:43.202Z,21.9
2016-11-21T05:03:43.222Z,21.75
2016-11-21T05:04:43.867Z,21.88
2016-11-21T05:05:43.895Z,21.77
2016-11-21T05:06:43.604Z,21.79
2016-11-21T05:07:43.945Z,21.86
2016-11-21T05:08:43.670Z,21.94
2016-11-21T05:09:44.010Z,21.86
2016-11-21T05:10:44.035Z,21.91
2016-11-21T05:11:43.756Z,21.9
2016-11-21T05:12:43.785Z,21.88
2016-11-21T05:13:43.800Z,21.84
2016-11-21T05:14:43.534Z,21.79
2016-11-21T05:15:43.558Z,21.82
2016-11-21T05:16:44.215Z,21.91
2016-11-21T05:17:44.237Z,21.84
2016-11-21T05:18:43.948Z,21.82
2016-11-21T05:19:43.973Z,21.88
2016-11-21T05:20:44.313Z,21.9
2016-11-21T05:21:43.731Z,21.86
2016-11-21T05:22:44.060Z,21.83
2016-11-21T05:23:44.420Z,21.86
2016-11-21T05:24:44.416Z,21.83
2016-11-21T05:25:44.449Z,21.83
2016-11-21T05:26:44.188Z,21.83
2016-11-21T05:27:44.511Z,21.83
2016-11-21T05:28:44.536Z,21.82
2016-11-21T05:29:44.566Z,21.8
2016-11-21T05:30:44.602Z,21.8
2016-11-21T05:31:44.618Z,21.79
2016-11-21T05:32:44.662Z,21.82
2016-11-21T05:33:44.671Z,21.8
2016-11-21T05:34:44.703Z,21.88
2016-11-21T05:35:44.432Z,21.9
2016-11-21T05:36:44.449Z,21.8
2016-11-21T05:37:44.794Z,21.83
2016-11-21T05:38:44.492Z,21.9
2016-11-21T05:39:44.850Z,21.92
2016-11-21T05:40:44.868Z,21.79
2016-11-21T05:41:44.590Z,21.83
2016-11-21T05:42:44.913Z,21.9
2016-11-21T05:43:44.358Z,21.86
2016-11-21T05:44:44.671Z,21.8
2016-11-21T05:45:45.012Z,21.96
2016-11-21T05:46:44.724Z,21.94
2016-11-21T05:47:45.070Z,21.88
2016-11-21T05:48:45.110Z,22
2016-11-21T05:49:44.803Z,22
2016-11-21T05:50:44.843Z,22.02
2016-11-21T05:51:45.176Z,21.94
2016-11-21T05:52:45.237Z,22
2016-11-21T05:53:45.237Z,22.05
2016-11-21T05:54:45.262Z,22.05
2016-11-21T05:55:44.982Z,22.05
2016-11-21T05:56:45.023Z,22.12
2016-11-21T05:57:45.055Z,22.05
2016-11-21T05:58:45.077Z,22.06
2016-11-21T05:59:45.089Z,22.1
2016-11-21T06:00:45.422Z,22.14
2016-11-21T06:01:45.150Z,22.09
2016-11-21T06:02:45.207Z,22.12
2016-11-21T06:03:45.236Z,22.12
2016-11-21T06:04:45.261Z,22.1
2016-11-21T06:05:45.257Z,22.14
2016-11-21T06:06:45.284Z,22.2
2016-11-21T06:07:45.627Z,22.21
2016-11-21T06:08:45.647Z,22.24
2016-11-21T06:09:45.664Z,22.2
2016-11-21T06:10:45.705Z,22.24
2016-11-21T06:11:45.734Z,22.25
2016-11-21T06:12:45.459Z,22.25
2016-11-21T06:13:45.500Z,22.28
2016-11-21T06:14:45.516Z,22.33
2016-11-21T06:15:45.545Z,22.25
2016-11-21T06:16:45.882Z,22.37
2016-11-21T06:17:45.907Z,22.28
2016-11-21T06:18:45.627Z,22.37
2016-11-21T06:19:45.972Z,22.36
2016-11-21T06:20:45.681Z,22.37
2016-11-21T06:21:45.714Z,22.4
2016-11-21T06:22:46.037Z,22.43
2016-11-21T06:23:46.067Z,22.43
2016-11-21T06:24:46.107Z,22.43
2016-11-21T06:25:46.123Z,22.39
2016-11-21T06:26:45.844Z,22.36
2016-11-21T06:27:46.178Z,22.43
2016-11-21T06:28:46.218Z,22.51
2016-11-21T06:29:46.234Z,22.45
2016-11-21T06:30:45.968Z,22.43
2016-11-21T06:31:46.304Z,22.54
2016-11-21T06:32:46.327Z,22.51
2016-11-21T06:33:46.350Z,22.57
2016-11-21T06:34:46.074Z,22.45
2016-11-21T06:35:46.408Z,22.49
2016-11-21T06:36:46.444Z,22.51
2016-11-21T06:37:46.465Z,22.6
2016-11-21T06:38:46.194Z,22.61
2016-11-21T06:39:46.519Z,22.58
2016-11-21T06:40:46.548Z,22.62
2016-11-21T06:41:46.268Z,22.62
2016-11-21T06:42:46.306Z,22.61
2016-11-21T06:43:46.334Z,22.64
2016-11-21T06:44:46.664Z,22.6
2016-11-21T06:45:46.695Z,22.67
2016-11-21T06:46:46.718Z,22.61
2016-11-21T06:47:46.445Z,22.61
2016-11-21T06:48:46.773Z,22.61
2016-11-21T06:49:46.798Z,22.67
2016-11-21T06:50:46.831Z,22.57
2016-11-21T06:51:46.561Z,22.68
2016-11-21T06:52:46.892Z,22.62
2016-11-21T06:53:46.613Z,22.58
2016-11-21T06:54:46.646Z,22.6
2016-11-21T06:55:46.974Z,22.58
2016-11-21T06:56:47.013Z,22.65
2016-11-21T06:57:47.023Z,22.68
2016-11-21T06:58:46.753Z,22.6
2016-11-21T06:59:47.102Z,22.62
2016-11-21T07:00:47.119Z,22.65
2016-11-21T07:01:47.143Z,22.7
2016-11-21T07:02:46.871Z,22.68
2016-11-21T07:03:47.204Z,22.62
2016-11-21T07:04:46.925Z,22.72
2016-11-21T07:05:47.254Z,22.68
2016-11-21T07:06:46.983Z,22.62
2016-11-21T07:07:47.007Z,22.65
2016-11-21T07:08:47.344Z,22.55
2016-11-21T07:09:47.068Z,22.75
2016-11-21T07:10:47.406Z,22.65
2016-11-21T07:11:47.446Z,22.7
2016-11-21T07:12:47.446Z,22.72
2016-11-21T07:13:47.495Z,22.73
2016-11-21T07:14:47.523Z,22.73
2016-11-21T07:15:47.536Z,22.77
2016-11-21T07:16:47.586Z,22.75
2016-11-21T07:17:47.609Z,22.72
2016-11-21T07:18:47.636Z,22.7
2016-11-21T07:19:47.655Z,22.73
2016-11-21T07:20:47.676Z,22.73
2016-11-21T07:21:47.713Z,22.73
2016-11-21T07:22:47.737Z,22.7
2016-11-21T07:23:47.470Z,22.79
2016-11-21T07:24:47.795Z,22.79
2016-11-21T07:25:47.840Z,22.77
2016-11-21T07:26:47.552Z,22.76
2016-11-21T07:27:47.278Z,22.75
2016-11-21T07:28:47.926Z,22.77
2016-11-21T07:29:47.634Z,22.79
2016-11-21T07:30:47.360Z,22.76
2016-11-21T07:31:47.687Z,22.77
2016-11-21T07:32:47.753Z,22.83
2016-11-21T07:33:47.750Z,22.77
2016-11-21T07:34:48.074Z,22.8
2016-11-21T07:35:48.115Z,22.82
2016-11-21T07:36:47.544Z,22.79
2016-11-21T07:37:47.869Z,22.82
2016-11-21T07:38:48.190Z,22.85
2016-11-21T07:39:48.226Z,22.73
2016-11-21T07:40:48.255Z,22.82
2016-11-21T07:41:47.980Z,22.79
2016-11-21T07:42:48.011Z,22.82
2016-11-21T07:43:48.042Z,22.79
2016-11-21T07:44:48.072Z,22.77
2016-11-21T07:45:48.398Z,22.77
2016-11-21T07:46:48.427Z,22.79
2016-11-21T07:47:48.456Z,22.79
2016-11-21T07:48:48.169Z,22.77
2016-11-21T07:49:48.505Z,22.76
2016-11-21T07:50:48.238Z,22.73
2016-11-21T07:51:48.258Z,22.73
2016-11-21T07:52:48.295Z,22.76
2016-11-21T07:53:48.630Z,22.72
2016-11-21T07:54:48.645Z,22.75
2016-11-21T07:55:48.368Z,22.73
2016-11-21T07:56:48.715Z,22.75
2016-11-21T07:57:48.435Z,22.77
2016-11-21T07:58:48.464Z,22.77
2016-11-21T07:59:48.516Z,22.7
2016-11-21T08:00:48.824Z,22.75
2016-11-21T08:01:48.853Z,22.76
2016-11-21T08:02:48.876Z,22.73
2016-11-21T08:03:48.599Z,22.75
2016-11-21T08:04:48.629Z,22.68
2016-11-21T08:05:48.961Z,22.67
2016-11-21T08:06:48.695Z,22.72
2016-11-21T08:07:48.411Z,22.62
2016-11-21T08:08:49.055Z,22.58
2016-11-21T08:09:48.470Z,22.72
2016-11-21T08:10:48.809Z,22.65
2016-11-21T08:11:48.834Z,22.64
2016-11-21T08:12:48.858Z,22.64
2016-11-21T08:13:49.188Z,22.6
2016-11-21T08:14:48.604Z,22.67
2016-11-21T08:15:48.640Z,22.61
2016-11-21T08:16:49.265Z,22.61
2016-11-21T08:17:49.314Z,22.68
2016-11-21T08:18:49.347Z,22.55
2016-11-21T08:19:49.363Z,22.57
2016-11-21T08:20:49.397Z,22.6
2016-11-21T08:21:49.413Z,22.55
2016-11-21T08:22:49.446Z,22.58
2016-11-21T08:23:49.466Z,22.58
2016-11-21T08:24:49.503Z,22.61
2016-11-21T08:25:49.528Z,22.57
2016-11-21T08:26:49.249Z,22.61
2016-11-21T08:27:49.585Z,22.52
2016-11-21T08:28:49.618Z,22.51
2016-11-21T08:29:49.343Z,22.49
2016-11-21T08:30:49.668Z,22.49
2016-11-21T08:31:49.696Z,22.47
2016-11-21T08:32:49.425Z,22.52
2016-11-21T08:33:49.750Z,22.57
2016-11-21T08:34:49.791Z,22.51
2016-11-21T08:35:49.508Z,22.51
2016-11-21T08:36:49.544Z,22.47
2016-11-21T08:37:49.881Z,22.49
2016-11-21T08:38:49.906Z,22.49
2016-11-21T08:39:49.926Z,22.51
2016-11-21T08:40:49.662Z,22.45
2016-11-21T08:41:50.000Z,22.49
2016-11-21T08:42:49.714Z,22.47
2016-11-21T08:43:50.038Z,22.39
2016-11-21T08:44:49.770Z,22.43
2016-11-21T08:45:50.129Z,22.4
2016-11-21T08:46:50.126Z,22.37
2016-11-21T08:47:49.545Z,22.39
2016-11-21T08:48:50.182Z,22.45
2016-11-21T08:49:49.601Z,22.42
2016-11-21T08:50:50.235Z,22.39
2016-11-21T08:51:50.267Z,22.39
2016-11-21T08:52:49.996Z,22.45
2016-11-21T08:53:50.337Z,22.36
2016-11-21T08:54:50.050Z,22.45
2016-11-21T08:55:49.766Z,22.37
2016-11-21T08:56:50.411Z,22.45
2016-11-21T08:57:50.439Z,22.35
2016-11-21T08:58:50.460Z,22.39
2016-11-21T08:59:50.493Z,22.39
2016-11-21T09:00:50.530Z,22.39
2016-11-21T09:01:50.558Z,22.42
2016-11-21T09:02:50.587Z,22.33
2016-11-21T09:03:50.000Z,22.39
2016-11-21T09:04:50.640Z,22.35
2016-11-21T09:05:50.678Z,22.37
2016-11-21T09:06:50.078Z,22.37
2016-11-21T09:07:50.419Z,22.36
2016-11-21T09:08:50.752Z,22.3
2016-11-21T09:09:50.781Z,22.37
2016-11-21T09:10:50.505Z,22.3
2016-11-21T09:11:50.530Z,22.3
2016-11-21T09:12:50.867Z,22.24
2016-11-21T09:13:50.898Z,22.24
2016-11-21T09:14:50.921Z,22.4
2016-11-21T09:15:50.949Z,22.27
2016-11-21T09:16:50.673Z,22.27
2016-11-21T09:17:50.406Z,22.28
2016-11-21T09:18:51.047Z,22.28
2016-11-21T09:19:51.056Z,22.31
2016-11-21T09:20:51.097Z,22.27
2016-11-21T09:21:50.814Z,22.27
2016-11-21T09:22:51.144Z,22.24
2016-11-21T09:23:50.871Z,22.25
2016-11-21T09:24:51.194Z,22.24
2016-11-21T09:25:51.232Z,22.17
2016-11-21T09:26:50.956Z,22.15
2016-11-21T09:27:51.282Z,22.06
2016-11-21T09:28:51.323Z,22
2016-11-21T09:29:51.339Z,21.84
2016-11-21T09:30:51.371Z,21.98
2016-11-21T09:31:51.093Z,21.83
2016-11-21T09:32:51.433Z,21.79
2016-11-21T09:33:51.454Z,21.8
2016-11-21T09:34:51.479Z,21.96
2016-11-21T09:35:51.515Z,21.94
2016-11-21T09:36:51.523Z,21.9
2016-11-21T09:37:51.287Z,21.9
2016-11-21T09:38:51.588Z,22.02
2016-11-21T09:39:51.322Z,22.02
2016-11-21T09:40:51.654Z,22
2016-11-21T09:41:51.676Z,22.03
2016-11-21T09:42:51.392Z,22.02
2016-11-21T09:43:51.428Z,22.09
2016-11-21T09:44:51.762Z,22.14
2016-11-21T09:45:51.500Z,22.07
2016-11-21T09:46:51.822Z,22.06
2016-11-21T09:47:51.843Z,22.03
2016-11-21T09:48:51.876Z,22.07
2016-11-21T09:49:51.596Z,22.12
2016-11-21T09:50:51.937Z,22.17
2016-11-21T09:51:51.958Z,22.12
2016-11-21T09:52:52.019Z,22.14
2016-11-21T09:53:52.003Z,22.12
2016-11-21T09:54:52.276Z,22.09
2016-11-21T09:55:52.747Z,22.09
2016-11-21T09:56:51.789Z,22.1
2016-11-21T09:57:51.838Z,22.12
2016-11-21T09:58:51.855Z,22.06
2016-11-21T09:59:51.884Z,22.1
2016-11-21T10:00:51.612Z,22.17
2016-11-21T10:01:51.929Z,22.1
2016-11-21T10:02:52.262Z,22.07
2016-11-21T10:03:52.295Z,22.09
2016-11-21T10:04:52.328Z,22.06
2016-11-21T10:05:52.049Z,22.12
2016-11-21T10:06:52.064Z,22.14
2016-11-21T10:07:52.398Z,22.15
2016-11-21T10:08:52.126Z,22.14
2016-11-21T10:09:52.151Z,22.17
2016-11-21T10:10:52.480Z,22.12
2016-11-21T10:11:52.520Z,22.06
2016-11-21T10:12:52.245Z,22.07
2016-11-21T10:13:52.266Z,22.1
2016-11-21T10:14:52.290Z,22.15
2016-11-21T10:15:52.619Z,22.09
2016-11-21T10:16:52.664Z,22.14
2016-11-21T10:17:52.381Z,22.1
2016-11-21T10:18:52.409Z,22.17
2016-11-21T10:19:52.759Z,22.12
2016-11-21T10:20:52.770Z,22.12
2016-11-21T10:21:52.495Z,22.1
2016-11-21T10:22:52.836Z,22.09
2016-11-21T10:23:52.861Z,22.14
2016-11-21T10:24:52.577Z,22.15
2016-11-21T10:25:52.914Z,22.12
2016-11-21T10:26:52.639Z,22.12
2016-11-21T10:27:52.968Z,22.12
2016-11-21T10:28:52.992Z,22.1
2016-11-21T10:29:53.030Z,22.14
2016-11-21T10:30:52.751Z,22.09
2016-11-21T10:31:53.082Z,22.12
2016-11-21T10:32:53.115Z,22.1
2016-11-21T10:33:52.528Z,22.12
2016-11-21T10:34:53.163Z,22.1
2016-11-21T10:35:53.190Z,22.12
2016-11-21T10:36:53.218Z,22.17
2016-11-21T10:37:53.255Z,22.07
2016-11-21T10:38:53.292Z,22.14
2016-11-21T10:39:53.318Z,22.14
2016-11-21T10:40:53.045Z,22.15
2016-11-21T10:41:53.064Z,22.17
2016-11-21T10:42:53.394Z,22.14
2016-11-21T10:43:53.428Z,22.1
2016-11-21T10:44:52.840Z,22.1
2016-11-21T10:45:53.169Z,22.09
2016-11-21T10:46:53.505Z,22.12
2016-11-21T10:47:53.234Z,22.07
2016-11-21T10:48:53.559Z,22.14
2016-11-21T10:49:53.279Z,22.06
2016-11-21T10:50:53.308Z,22.06
2016-11-21T10:51:53.657Z,22.15
2016-11-21T10:52:53.369Z,22.06
2016-11-21T10:53:53.087Z,22.06
2016-11-21T10:54:53.123Z,22.07
2016-11-21T10:55:53.763Z,22.05
2016-11-21T10:56:53.785Z,22.1
2016-11-21T10:57:53.506Z,22.09
2016-11-21T10:58:53.534Z,22.09
2016-11-21T10:59:53.559Z,22.14
2016-11-21T11:00:53.888Z,22.09
2016-11-21T11:01:53.928Z,22.18
2016-11-21T11:02:53.956Z,22.22
2016-11-21T11:03:53.701Z,22.21
2016-11-21T11:04:53.694Z,22.22
2016-11-21T11:05:54.043Z,22.24
2016-11-21T11:06:53.767Z,22.2
2016-11-21T11:07:53.796Z,22.17
2016-11-21T11:08:53.820Z,22.12
2016-11-21T11:09:53.842Z,22.12
2016-11-21T11:10:54.178Z,22.2
2016-11-21T11:11:53.895Z,22.1
2016-11-21T11:12:53.932Z,22.1
2016-11-21T11:13:54.271Z,22.14
2016-11-21T11:14:54.293Z,22.15
2016-11-21T11:15:54.321Z,22.15
2016-11-21T11:16:54.051Z,22.14
2016-11-21T11:17:54.379Z,22.12
2016-11-21T11:18:54.412Z,22.15
2016-11-21T11:19:54.429Z,22.12
2016-11-21T11:20:53.849Z,22.09
2016-11-21T11:21:54.182Z,22.14
2016-11-21T11:22:54.533Z,22.09
2016-11-21T11:23:54.552Z,22.1
2016-11-21T11:24:54.269Z,22.14
2016-11-21T11:25:54.602Z,22.1
2016-11-21T11:26:54.323Z,22.14
2016-11-21T11:27:54.656Z,22.17
2016-11-21T11:28:54.371Z,22.09
2016-11-21T11:29:54.715Z,22.1
2016-11-21T11:30:54.741Z,22.12
2016-11-21T11:31:54.488Z,22.12
2016-11-21T11:32:54.195Z,22.12
2016-11-21T11:33:54.827Z,22.09
2016-11-21T11:34:54.868Z,22.05
2016-11-21T11:35:54.580Z,22.06
2016-11-21T11:36:54.909Z,22.18
2016-11-21T11:37:54.638Z,22.1
2016-11-21T11:38:54.983Z,22.09
2016-11-21T11:39:54.995Z,22.1
2016-11-21T11:40:55.016Z,22.07
2016-11-21T11:41:55.049Z,22.09
2016-11-21T11:42:55.081Z,22.05
2016-11-21T11:43:54.794Z,22.09
2016-11-21T11:44:54.559Z,22.06
2016-11-21T11:45:55.160Z,22.09
2016-11-21T11:46:54.897Z,22.02
2016-11-21T11:47:55.213Z,22.1
2016-11-21T11:48:55.250Z,22.07
2016-11-21T11:49:55.279Z,22.06
2016-11-21T11:50:55.303Z,22.14
2016-11-21T11:51:55.321Z,22.03
2016-11-21T11:52:55.365Z,22.1
2016-11-21T11:53:55.386Z,22.06
2016-11-21T11:54:55.419Z,22.12
2016-11-21T11:55:55.435Z,22.02
2016-11-21T11:56:55.472Z,22.07
2016-11-21T11:57:55.492Z,22.09
2016-11-21T11:58:55.525Z,22.02
2016-11-21T11:59:55.558Z,22.1
2016-11-21T12:00:55.279Z,22.05
2016-11-21T12:01:55.667Z,22.1
2016-11-21T12:02:55.336Z,22.07
2016-11-21T12:03:55.673Z,22.03
2016-11-21T12:04:55.705Z,22.06
2016-11-21T12:05:55.726Z,22.1
2016-11-21T12:06:55.759Z,22.1
2016-11-21T12:07:55.781Z,22.07
2016-11-21T12:08:55.808Z,22.09
2016-11-21T12:09:55.838Z,22.1
2016-11-21T12:10:55.866Z,22.06
2016-11-21T12:11:55.899Z,22.07
2016-11-21T12:12:55.924Z,22.07
2016-11-21T12:13:55.948Z,21.99
2016-11-21T12:14:55.677Z,22.06
2016-11-21T12:15:56.007Z,22.15
2016-11-21T12:16:56.022Z,22.09
2016-11-21T12:17:55.763Z,22.06
2016-11-21T12:18:55.784Z,22.06
2016-11-21T12:19:55.820Z,22.05
2016-11-21T12:20:56.145Z,22.06
2016-11-21T12:21:56.174Z,22.06
2016-11-21T12:22:55.903Z,22.07
2016-11-21T12:23:56.234Z,22.05
2016-11-21T12:24:55.664Z,22.03
2016-11-21T12:25:56.289Z,22.07
2016-11-21T12:26:55.713Z,22.06
2016-11-21T12:27:56.042Z,22.06
2016-11-21T12:28:56.379Z,22.06
2016-11-21T12:29:56.400Z,22.03
2016-11-21T12:30:56.433Z,22.05
2016-11-21T12:31:56.153Z,22.03
2016-11-21T12:32:56.485Z,22
2016-11-21T12:33:56.210Z,22.15
2016-11-21T12:34:56.223Z,22.09
2016-11-21T12:35:56.269Z,22.03
2016-11-21T12:36:56.641Z,21.98
2016-11-21T12:37:56.013Z,21.88
2016-11-21T12:38:56.342Z,21.92
2016-11-21T12:39:56.680Z,21.91
2016-11-21T12:40:56.408Z,21.92
2016-11-21T12:41:56.741Z,21.86
2016-11-21T12:42:56.768Z,21.88
2016-11-21T12:43:56.789Z,21.82
2016-11-21T12:44:56.514Z,21.91
2016-11-21T12:45:56.855Z,21.88
2016-11-21T12:46:56.572Z,21.83
2016-11-21T12:47:56.904Z,21.84
2016-11-21T12:48:56.933Z,21.77
2016-11-21T12:49:56.954Z,21.83
2016-11-21T12:50:56.987Z,21.79
2016-11-21T12:51:56.707Z,21.9
2016-11-21T12:52:57.040Z,21.91
2016-11-21T12:53:57.085Z,21.88
2016-11-21T12:54:56.484Z,21.86
2016-11-21T12:55:56.814Z,21.82
2016-11-21T12:56:56.853Z,21.75
2016-11-21T12:57:57.183Z,21.74